This is the latest recevied weather packets stored in our database for station/object TG9SRP-22. If no packets are shown the sender has not sent any weather packets the latest 10 day(s).
| Time | Temp. | Humidity | Pressure | Rain* | Wind** | Luminosity | Snow |
|---|---|---|---|---|---|---|---|
| 1777789612 | 14.44° C | 91% | 1016 hPa | 0 mm | - | - | - |
| 1777789011 | 15.56° C | 90% | 1016 hPa | 0 mm | - | - | - |
| 1777788411 | 16.67° C | 88% | 1016 hPa | 0 mm | - | - | - |
| 1777787810 | 17.78° C | 86% | 1016 hPa | 0 mm | - | - | - |
| 1777787209 | 18.33° C | 86% | 1016 hPa | 0 mm | - | - | - |
| 1777786608 | 16.11° C | 85% | 1016 hPa | 0 mm | - | - | - |
| 1777786008 | 16.67° C | 85% | 1017 hPa | 0 mm | - | - | - |
| 1777785407 | 17.22° C | 85% | 1017 hPa | 0.25 mm | - | - | - |
| 1777784807 | 17.78° C | 84% | 1017 hPa | 0 mm | - | - | - |
| 1777784206 | 18.89° C | 83% | 1017 hPa | 0.25 mm | - | - | - |
| 1777783605 | 15° C | 93% | 1017 hPa | 0 mm | - | - | - |
| 1777783005 | 16.11° C | 92% | 1017 hPa | 0.25 mm | - | - | - |
| 1777782404 | 17.22° C | 89% | 1017 hPa | 0 mm | - | - | - |
| 1777781803 | 18.33° C | 85% | 1017 hPa | 0 mm | - | - | - |
| 1777781203 | 15.56° C | 86% | 1017 hPa | 0 mm | - | - | - |
| 1777780602 | 16.67° C | 84% | 1017 hPa | 0 mm | - | - | - |
| 1777780001 | 17.78° C | 81% | 1017 hPa | 0 mm | - | - | - |
| 1777779401 | 18.89° C | 78% | 1017 hPa | 0 mm | - | - | - |
| 1777778800 | 19.44° C | 78% | 1015 hPa | 0 mm | - | - | - |
| 1777778200 | 15° C | 93% | 1015 hPa | 0 mm | - | - | - |
| 1777777599 | 16.11° C | 92% | 1015 hPa | 0 mm | - | - | - |
| 1777776998 | 16.11° C | 92% | 1015 hPa | 0 mm | - | - | - |
| 1777776398 | 17.22° C | 91% | 1015 hPa | 0 mm | - | - | - |
| 1777775797 | 18.33° C | 89% | 1014 hPa | 0 mm | - | - | - |
| 1777775196 | 18.33° C | 89% | 1014 hPa | 0 mm | - | - | - |
* Rain latest hour (hover to see other rain measurements)
** Current wind speed in m/s (hover to see current wind gust speed)